Time;durP1;ratioP1;P1;durP2;ratioP2;P2;SDS_P1;SDS_P2;PMS_P1;PMS_P2;Temp;Humidity;BMP_temperature;BMP_pressure;BME280_temperature;BME280_humidity;BME280_pressure;Samples;Min_cycle;Max_cycle;Signal;HPM_P1;HPM_P2
2023/04/04 00:00:25;;;;;;;10.10;5.40;;;;;;;-1.04;71.87;100016.55;107857;1307;22255;-42
2023/04/04 00:02:50;;;;;;;12.40;5.10;;;;;;;-1.02;71.71;100011.56;107823;1307;22166;-41
2023/04/04 00:05:16;;;;;;;10.30;6.20;;;;;;;-1.04;71.46;100007.95;107820;1307;22208;-45
2023/04/04 00:07:41;;;;;;;13.10;6.30;;;;;;;-1.07;71.75;100005.70;107614;1307;22432;-41
2023/04/04 00:10:07;;;;;;;16.40;6.80;;;;;;;-1.06;71.88;100005.36;107814;1307;23045;-42
2023/04/04 00:12:32;;;;;;;15.90;7.50;;;;;;;-1.06;71.95;100006.05;107826;1307;22257;-42
2023/04/04 00:14:58;;;;;;;13.50;6.60;;;;;;;-1.19;72.17;100001.70;107833;1307;22289;-39
2023/04/04 00:17:23;;;;;;;21.60;9.30;;;;;;;-1.20;72.15;100000.99;107814;1307;22867;-44
2023/04/04 00:19:48;;;;;;;13.50;6.50;;;;;;;-1.18;71.87;99998.27;107833;1307;22297;-42
2023/04/04 00:22:13;;;;;;;18.50;7.00;;;;;;;-1.27;72.27;99993.23;107832;1307;22362;-43
2023/04/04 00:24:39;;;;;;;13.30;6.50;;;;;;;-1.27;72.42;99995.13;107835;1307;22194;-39
2023/04/04 00:27:05;;;;;;;15.50;6.50;;;;;;;-1.31;72.76;99995.11;107829;1307;23091;-42
2023/04/04 00:29:30;;;;;;;12.10;6.20;;;;;;;-1.25;72.52;99994.27;107817;1307;22325;-43
2023/04/04 00:31:56;;;;;;;14.80;6.30;;;;;;;-1.27;72.80;99991.17;107827;1307;23069;-42
2023/04/04 00:34:21;;;;;;;16.60;7.00;;;;;;;-1.35;73.22;99990.45;107847;1307;23007;-40
2023/04/04 00:36:47;;;;;;;14.10;6.90;;;;;;;-1.31;72.47;99985.30;107825;1307;22253;-43
2023/04/04 00:39:12;;;;;;;14.00;7.30;;;;;;;-1.33;72.55;99981.85;107842;1307;22242;-47
2023/04/04 00:41:38;;;;;;;16.80;7.60;;;;;;;-1.35;72.56;99978.93;107824;1307;22764;-47
2023/04/04 00:44:04;;;;;;;17.60;7.50;;;;;;;-1.42;73.15;99977.00;107860;1307;22969;-40
2023/04/04 00:46:30;;;;;;;20.20;7.50;;;;;;;-1.40;72.96;99971.17;107850;1307;23517;-41
2023/04/04 00:48:56;;;;;;;18.00;7.80;;;;;;;-1.36;73.01;99965.67;107812;1307;22376;-45
2023/04/04 00:51:21;;;;;;;13.40;6.80;;;;;;;-1.31;72.43;99969.98;107835;1307;22262;-42
2023/04/04 00:53:47;;;;;;;16.50;6.00;;;;;;;-1.39;72.52;99968.06;107842;1307;23279;-37
2023/04/04 00:56:13;;;;;;;13.50;5.40;;;;;;;-1.46;72.82;99968.73;107823;1307;22216;-45
2023/04/04 00:58:40;;;;;;;13.50;5.10;;;;;;;-1.48;72.81;99967.34;107843;1307;22212;-42
2023/04/04 01:01:05;;;;;;;9.60;4.60;;;;;;;-1.48;73.00;99967.01;107838;1307;22276;-45
2023/04/04 01:03:32;;;;;;;8.50;4.20;;;;;;;-1.44;72.67;99961.35;107835;1307;22221;-40
2023/04/04 01:05:58;;;;;;;12.00;4.20;;;;;;;-1.41;72.49;99960.32;107852;1307;22262;-39
2023/04/04 01:08:26;;;;;;;8.90;4.40;;;;;;;-1.38;72.37;99957.06;107832;1307;22216;-39
2023/04/04 01:10:51;;;;;;;7.40;3.70;;;;;;;-1.42;72.39;99957.05;107864;1307;22924;-47
2023/04/04 01:13:17;;;;;;;9.20;3.90;;;;;;;-1.38;71.98;99953.80;107831;1307;22266;-43
2023/04/04 01:15:43;;;;;;;9.20;4.20;;;;;;;-1.40;71.46;99951.39;107867;1307;22285;-44
2023/04/04 01:18:12;;;;;;;6.80;3.50;;;;;;;-1.37;71.40;99949.33;107831;1307;23057;-42
2023/04/04 01:20:46;;;;;;;8.30;3.90;;;;;;;-1.35;71.21;99944.86;107835;1307;22857;-46
2023/04/04 01:23:13;;;;;;;6.70;2.90;;;;;;;-1.43;71.46;99943.64;107839;1307;22627;-38
2023/04/04 01:25:38;;;;;;;7.00;3.50;;;;;;;-1.39;71.34;99941.43;107847;1307;22415;-46
2023/04/04 01:28:04;;;;;;;5.20;3.00;;;;;;;-1.30;70.88;99941.44;107852;1307;22430;-42
2023/04/04 01:30:37;;;;;;;7.60;3.10;;;;;;;-1.29;71.02;99943.34;107815;1307;22472;-41
2023/04/04 01:33:09;;;;;;;11.70;3.30;;;;;;;-1.24;70.71;99942.15;107823;1307;22410;-43
2023/04/04 01:35:50;;;;;;;8.40;3.20;;;;;;;-1.29;70.57;99941.27;107810;1307;23096;-44
2023/04/04 01:38:29;;;;;;;9.30;3.50;;;;;;;-1.37;70.64;99938.66;107823;1307;22241;-44
2023/04/04 01:41:03;;;;;;;9.70;3.20;;;;;;;-1.41;70.68;99935.89;107840;1307;23126;-40
2023/04/04 01:43:31;;;;;;;9.30;3.50;;;;;;;-1.43;70.92;99939.50;107843;1307;22560;-43
2023/04/04 01:45:58;;;;;;;9.30;3.50;;;;;;;-1.38;70.30;99941.25;107841;1307;22915;-43
2023/04/04 01:48:23;;;;;;;9.90;3.80;;;;;;;-1.48;70.65;99943.96;107824;1307;23128;-41
2023/04/04 01:50:49;;;;;;;5.70;3.40;;;;;;;-1.57;70.78;99947.02;107812;1307;22420;-44
2023/04/04 01:53:14;;;;;;;6.40;3.70;;;;;;;-1.65;70.96;99946.98;107865;1307;22408;-45
2023/04/04 01:55:40;;;;;;;9.00;3.60;;;;;;;-1.65;70.83;99946.80;107832;1307;22814;-48
2023/04/04 01:58:05;;;;;;;8.30;3.90;;;;;;;-1.68;71.11;99948.33;107809;1296;22415;-38
2023/04/04 02:00:30;;;;;;;6.80;3.30;;;;;;;-1.75;71.52;99947.10;107833;1307;22322;-39
2023/04/04 02:02:56;;;;;;;5.70;3.80;;;;;;;-1.74;71.68;99940.23;107830;1307;22247;-39
2023/04/04 02:05:21;;;;;;;5.70;3.40;;;;;;;-1.72;71.18;99938.69;107842;1307;22841;-44
2023/04/04 02:07:49;;;;;;;6.50;3.40;;;;;;;-1.83;71.85;99935.36;107820;1307;23107;-41
2023/04/04 02:10:15;;;;;;;7.30;3.50;;;;;;;-1.83;71.88;99934.50;107856;1307;22367;-38
2023/04/04 02:12:40;;;;;;;8.70;3.90;;;;;;;-1.79;71.94;99935.56;107827;1307;22645;-43
2023/04/04 02:15:06;;;;;;;6.70;3.30;;;;;;;-1.83;71.84;99935.20;107863;1307;22869;-42
2023/04/04 02:17:32;;;;;;;6.80;3.70;;;;;;;-1.82;72.05;99932.98;107846;1307;23236;-38
2023/04/04 02:19:57;;;;;;;7.60;4.00;;;;;;;-1.83;71.97;99936.73;107827;1307;22212;-46
2023/04/04 02:22:22;;;;;;;10.70;4.10;;;;;;;-1.93;72.33;99933.26;107849;1307;22230;-41
2023/04/04 02:24:47;;;;;;;7.70;3.30;;;;;;;-1.91;72.68;99935.50;107836;1307;23187;-38
2023/04/04 02:27:13;;;;;;;6.70;3.80;;;;;;;-1.82;72.39;99934.86;107802;1307;23264;-46
2023/04/04 02:29:38;;;;;;;9.10;3.20;;;;;;;-1.84;72.63;99934.34;107861;1307;23298;-43
2023/04/04 02:32:03;;;;;;;5.80;3.10;;;;;;;-1.84;72.70;99932.80;107839;1307;22240;-38
2023/04/04 02:34:29;;;;;;;9.60;3.50;;;;;;;-1.81;72.17;99927.65;107844;1307;23029;-38
2023/04/04 02:36:54;;;;;;;6.80;3.40;;;;;;;-1.84;72.46;99925.56;107840;1307;22419;-42
2023/04/04 02:39:19;;;;;;;8.50;3.30;;;;;;;-1.83;72.55;99927.13;107818;1307;22888;-42
2023/04/04 02:43:43;;;;;;;10.70;4.50;;;;;;;-1.79;72.48;99931.27;106936;1302;544902;-46
2023/04/04 02:46:08;;;;;;;6.20;3.20;;;;;;;-1.74;71.66;99930.77;107345;1313;22249;-48
2023/04/04 02:48:35;;;;;;;7.80;3.10;;;;;;;-1.78;71.98;99931.27;107374;1313;22358;-41
2023/04/04 02:51:00;;;;;;;12.00;3.50;;;;;;;-1.78;72.07;99931.80;107361;1314;23132;-42
2023/04/04 02:53:27;;;;;;;7.60;3.20;;;;;;;-1.73;71.89;99932.67;107329;1313;22247;-43
2023/04/04 02:55:52;;;;;;;6.70;3.10;;;;;;;-1.71;71.66;99935.09;107346;1314;22294;-43
2023/04/04 02:58:17;;;;;;;10.50;4.00;;;;;;;-1.74;71.60;99930.95;107379;1310;149398;-41
2023/04/04 03:00:43;;;;;;;8.80;3.60;;;;;;;-1.74;71.53;99931.63;107622;1310;22399;-41
2023/04/04 03:03:08;;;;;;;8.80;3.80;;;;;;;-1.71;71.72;99930.80;107631;1310;22394;-42
2023/04/04 03:05:33;;;;;;;10.10;3.60;;;;;;;-1.70;71.66;99929.09;107626;1310;22233;-41
2023/04/04 03:07:59;;;;;;;11.30;4.60;;;;;;;-1.70;71.71;99933.55;107614;1310;22254;-43
2023/04/04 03:10:28;;;;;;;7.70;4.00;;;;;;;-1.71;71.75;99937.85;107586;1308;22901;-41
2023/04/04 03:12:54;;;;;;;10.20;3.80;;;;;;;-1.75;71.80;99934.04;107696;1310;22250;-45
2023/04/04 03:15:20;;;;;;;8.90;3.30;;;;;;;-1.75;72.13;99932.83;107636;1310;22150;-39
2023/04/04 03:17:45;;;;;;;10.20;3.50;;;;;;;-1.79;72.24;99937.29;107654;1310;23158;-45
2023/04/04 03:20:15;;;;;;;12.10;4.30;;;;;;;-1.77;72.13;99933.34;107619;1310;22237;-38
2023/04/04 03:22:41;;;;;;;8.80;3.90;;;;;;;-1.85;72.54;99935.36;107654;1310;22376;-42
2023/04/04 03:25:07;;;;;;;7.60;3.80;;;;;;;-1.84;72.59;99937.77;107626;1310;22396;-44
2023/04/04 03:27:32;;;;;;;11.00;4.30;;;;;;;-1.77;72.46;99933.16;107659;1310;22274;-41
2023/04/04 03:29:58;;;;;;;8.80;3.80;;;;;;;-1.80;72.60;99933.33;107629;1310;22318;-48
2023/04/04 03:32:24;;;;;;;8.20;4.20;;;;;;;-1.76;72.51;99931.98;107626;1310;22369;-41
2023/04/04 03:34:50;;;;;;;9.50;4.10;;;;;;;-1.75;72.49;99934.38;107656;1310;22321;-45
2023/04/04 03:37:16;;;;;;;10.10;4.60;;;;;;;-1.71;72.45;99933.89;107640;1310;22317;-40
2023/04/04 03:39:41;;;;;;;9.90;4.60;;;;;;;-1.69;72.47;99936.13;107638;1310;22393;-39
2023/04/04 03:42:06;;;;;;;13.50;4.60;;;;;;;-1.69;72.38;99932.88;107660;1310;22250;-46
2023/04/04 03:44:32;;;;;;;15.50;5.00;;;;;;;-1.84;73.16;99932.61;107679;1310;22443;-37
2023/04/04 03:46:57;;;;;;;10.70;5.50;;;;;;;-1.84;73.43;99930.38;107666;1310;22453;-40
2023/04/04 03:49:22;;;;;;;13.40;5.60;;;;;;;-1.77;73.47;99930.08;107660;1310;22395;-41
2023/04/04 03:51:48;;;;;;;12.20;5.40;;;;;;;-1.78;73.24;99931.61;107662;1310;22268;-42
2023/04/04 03:54:13;;;;;;;13.90;5.20;;;;;;;-1.81;73.22;99930.23;107661;1310;22471;-45
2023/04/04 03:56:38;;;;;;;17.00;5.40;;;;;;;-1.85;73.30;99930.72;107620;1310;23284;-45
2023/04/04 03:59:05;;;;;;;9.00;4.60;;;;;;;-1.91;73.59;99931.21;107722;1309;22238;-39
2023/04/04 04:01:30;;;;;;;15.00;6.60;;;;;;;-1.92;73.86;99929.65;107731;1309;22896;-44
2023/04/04 04:03:56;;;;;;;18.70;6.00;;;;;;;-1.88;73.27;99926.23;107766;1309;22310;-42
2023/04/04 04:06:22;;;;;;;15.20;5.80;;;;;;;-1.91;73.68;99925.18;107754;1309;22228;-45
2023/04/04 04:08:47;;;;;;;11.30;5.90;;;;;;;-1.95;74.57;99920.20;107738;1309;22213;-44
2023/04/04 04:11:12;;;;;;;10.20;5.30;;;;;;;-1.95;74.66;99924.13;107728;1309;22250;-40
2023/04/04 04:13:38;;;;;;;17.90;6.20;;;;;;;-1.93;73.86;99920.71;107741;1309;22302;-43
2023/04/04 04:16:04;;;;;;;10.10;5.20;;;;;;;-1.97;74.31;99919.50;107761;1309;22215;-46
2023/04/04 04:18:30;;;;;;;12.90;4.90;;;;;;;-2.02;75.35;99920.15;107759;1309;22533;-44
2023/04/04 04:20:58;;;;;;;11.50;4.60;;;;;;;-1.96;74.39;99916.74;107747;1309;22212;-44
2023/04/04 04:23:24;;;;;;;13.30;4.40;;;;;;;-2.05;75.13;99919.61;107753;1309;23354;-44
2023/04/04 04:25:50;;;;;;;9.40;4.30;;;;;;;-2.06;75.93;99921.16;107782;1309;22400;-42
2023/04/04 04:28:15;;;;;;;10.60;4.10;;;;;;;-2.04;75.88;99925.63;107514;1309;22275;-45
2023/04/04 04:30:40;;;;;;;6.70;3.90;;;;;;;-2.09;76.24;99928.18;107759;1309;22203;-43
2023/04/04 04:33:06;;;;;;;11.70;4.80;;;;;;;-2.15;76.96;99925.56;107747;1309;22849;-37
2023/04/04 04:35:35;;;;;;;12.60;4.80;;;;;;;-2.15;77.01;99921.27;108005;1306;22253;-36
2023/04/04 04:38:00;;;;;;;9.60;4.80;;;;;;;-2.15;77.05;99921.61;108025;1306;22387;-42
2023/04/04 04:40:26;;;;;;;11.20;5.10;;;;;;;-2.11;77.13;99917.34;108017;1306;22391;-39
2023/04/04 04:42:51;;;;;;;10.40;5.20;;;;;;;-2.08;76.99;99917.36;108008;1306;22393;-38
2023/04/04 04:45:16;;;;;;;17.20;4.80;;;;;;;-2.05;76.98;99916.51;108023;1306;22953;-39
2023/04/04 04:47:42;;;;;;;12.10;5.10;;;;;;;-2.09;77.35;99921.48;108030;1306;22293;-45
2023/04/04 04:50:07;;;;;;;11.30;4.90;;;;;;;-2.14;78.26;99919.73;108013;1306;22224;-44
2023/04/04 04:52:35;;;;;;;13.00;4.80;;;;;;;-2.09;78.33;99920.79;108023;1306;22405;-41
2023/04/04 04:55:01;;;;;;;11.60;5.60;;;;;;;-2.04;77.99;99927.02;108039;1306;23041;-41
2023/04/04 04:57:27;;;;;;;15.30;6.40;;;;;;;-1.99;78.03;99928.23;108012;1306;22325;-37
2023/04/04 04:59:52;;;;;;;9.60;5.00;;;;;;;-1.95;77.77;99929.30;108022;1306;22444;-46
2023/04/04 05:02:17;;;;;;;13.20;6.00;;;;;;;-1.94;77.67;99929.47;108009;1306;22244;-39
2023/04/04 05:04:44;;;;;;;16.80;6.10;;;;;;;-1.91;78.22;99930.17;108040;1306;22305;-38
2023/04/04 05:07:11;;;;;;;13.70;5.50;;;;;;;-1.83;77.21;99928.32;108019;1306;22210;-40
2023/04/04 05:09:36;;;;;;;16.10;4.90;;;;;;;-1.85;76.96;99932.09;108027;1306;22825;-46
2023/04/04 05:12:02;;;;;;;19.30;6.50;;;;;;;-1.93;78.02;99931.36;108027;1306;22425;-42
2023/04/04 05:14:28;;;;;;;14.20;5.90;;;;;;;-1.97;78.55;99925.67;108015;1306;23194;-41
2023/04/04 05:16:53;;;;;;;12.50;6.20;;;;;;;-1.96;79.17;99926.19;108012;1306;22998;-41
2023/04/04 05:19:19;;;;;;;18.60;5.90;;;;;;;-1.92;79.49;99926.55;108028;1306;22208;-47
2023/04/04 05:21:44;;;;;;;21.70;9.10;;;;;;;-1.84;79.03;99926.25;107818;1306;22284;-40
2023/04/04 05:24:10;;;;;;;24.30;9.50;;;;;;;-1.78;79.27;99925.09;108028;1306;22394;-45
2023/04/04 05:26:36;;;;;;;25.60;9.10;;;;;;;-1.71;79.06;99927.36;108023;1306;22222;-41
2023/04/04 05:29:01;;;;;;;19.10;7.90;;;;;;;-1.66;78.83;99921.69;107491;1298;22284;-44
2023/04/04 05:31:30;;;;;;;25.00;8.40;;;;;;;-1.56;78.20;99921.05;108019;1306;22518;-43
2023/04/04 05:33:55;;;;;;;17.60;6.00;;;;;;;-1.54;78.20;99922.44;108032;1306;22383;-39
2023/04/04 05:36:21;;;;;;;17.20;7.00;;;;;;;-1.54;77.97;99926.06;108020;1306;22216;-36
2023/04/04 05:38:46;;;;;;;12.20;7.50;;;;;;;-1.58;78.16;99927.25;108028;1306;22241;-40
2023/04/04 05:41:12;;;;;;;14.30;6.20;;;;;;;-1.57;77.91;99922.43;107635;1306;22316;-42
2023/04/04 05:43:37;;;;;;;12.50;6.10;;;;;;;-1.57;77.76;99920.37;108017;1306;23025;-42
2023/04/04 05:46:02;;;;;;;12.10;5.20;;;;;;;-1.50;78.16;99925.03;108008;1306;22241;-43
2023/04/04 05:48:27;;;;;;;17.40;6.70;;;;;;;-1.42;78.02;99924.20;108040;1306;24222;-47
2023/04/04 05:50:53;;;;;;;16.60;6.50;;;;;;;-1.43;77.72;99924.36;108036;1306;22180;-39
2023/04/04 05:53:19;;;;;;;14.40;5.60;;;;;;;-1.41;77.06;99920.24;108041;1306;22220;-43
2023/04/04 05:55:45;;;;;;;19.50;6.40;;;;;;;-1.45;76.98;99918.33;108019;1306;22361;-43
2023/04/04 05:58:10;;;;;;;17.80;6.50;;;;;;;-1.46;77.77;99917.65;108039;1306;22221;-40
2023/04/04 06:00:36;;;;;;;11.70;5.40;;;;;;;-1.40;77.57;99916.82;108020;1306;23242;-43
2023/04/04 06:03:01;;;;;;;17.50;5.10;;;;;;;-1.37;77.18;99919.58;108041;1306;22979;-43
2023/04/04 06:05:26;;;;;;;13.40;5.70;;;;;;;-1.31;76.49;99916.52;108016;1306;22198;-45
2023/04/04 06:07:52;;;;;;;11.20;5.10;;;;;;;-1.33;76.45;99918.39;108040;1306;22403;-40
2023/04/04 06:10:17;;;;;;;24.50;5.70;;;;;;;-1.25;76.19;99920.30;108044;1306;22242;-43
2023/04/04 06:12:42;;;;;;;11.30;5.60;;;;;;;-1.20;76.01;99921.85;108022;1306;22362;-41
2023/04/04 06:15:08;;;;;;;17.90;6.60;;;;;;;-1.17;76.01;99918.60;108028;1306;22408;-43
2023/04/04 06:17:33;;;;;;;19.00;5.70;;;;;;;-1.08;75.79;99921.71;108051;1306;22431;-42
2023/04/04 06:19:59;;;;;;;10.90;5.10;;;;;;;-1.04;75.46;99923.79;108029;1306;22240;-43
2023/04/04 06:22:24;;;;;;;14.30;4.80;;;;;;;-1.02;74.94;99924.65;108016;1306;22366;-43
2023/04/04 06:24:49;;;;;;;7.50;4.10;;;;;;;-0.94;74.48;99927.94;108032;1306;22356;-44
2023/04/04 06:27:15;;;;;;;14.30;5.00;;;;;;;-0.88;74.10;99927.77;108014;1306;22252;-42
2023/04/04 06:29:41;;;;;;;20.90;5.30;;;;;;;-0.85;74.25;99926.58;108029;1306;22173;-40
2023/04/04 06:32:07;;;;;;;11.00;4.90;;;;;;;-0.75;74.04;99925.72;108012;1306;23380;-38
2023/04/04 06:34:32;;;;;;;8.90;4.30;;;;;;;-0.66;73.09;99924.52;108021;1306;22417;-44
2023/04/04 06:36:57;;;;;;;13.70;5.10;;;;;;;-0.60;72.98;99923.67;108006;1306;23109;-39
2023/04/04 06:39:22;;;;;;;14.20;4.90;;;;;;;-0.56;72.29;99924.70;108042;1306;23104;-45
2023/04/04 06:41:48;;;;;;;14.40;4.10;;;;;;;-0.47;71.93;99922.98;108019;1306;22242;-42
2023/04/04 06:44:13;;;;;;;13.10;4.50;;;;;;;-0.33;71.88;99922.98;108008;1306;22228;-45
2023/04/04 06:46:39;;;;;;;16.60;4.70;;;;;;;-0.30;71.71;99926.59;108012;1306;22286;-44
2023/04/04 06:49:05;;;;;;;6.10;3.40;;;;;;;-0.18;71.63;99923.63;108023;1306;22296;-41
2023/04/04 06:51:32;;;;;;;5.50;3.10;;;;;;;-0.01;71.28;99922.75;108014;1306;22406;-43
2023/04/04 06:53:59;;;;;;;7.80;3.40;;;;;;;0.01;70.08;99918.44;108020;1306;22350;-40
2023/04/04 06:56:26;;;;;;;7.70;3.80;;;;;;;0.02;69.39;99918.79;108021;1306;22221;-43
2023/04/04 06:58:51;;;;;;;9.00;3.30;;;;;;;0.01;68.66;99916.20;108022;1306;22229;-45
2023/04/04 07:01:17;;;;;;;13.30;3.10;;;;;;;0.11;68.32;99917.20;108015;1306;22271;-40
2023/04/04 07:03:43;;;;;;;11.30;3.10;;;;;;;0.25;67.81;99912.16;108005;1306;22385;-41
2023/04/04 07:06:09;;;;;;;7.20;3.40;;;;;;;0.27;66.89;99915.95;108030;1306;22205;-37
2023/04/04 07:08:35;;;;;;;5.90;2.80;;;;;;;0.31;66.37;99914.39;108026;1306;23008;-40
2023/04/04 07:11:00;;;;;;;10.30;2.60;;;;;;;0.28;65.55;99913.55;107996;1306;22252;-41
2023/04/04 07:13:25;;;;;;;5.50;2.90;;;;;;;0.24;65.73;99918.37;108014;1306;22897;-41
2023/04/04 07:15:51;;;;;;;8.60;2.60;;;;;;;0.23;65.32;99914.40;108019;1306;22228;-42
2023/04/04 07:18:17;;;;;;;9.90;2.50;;;;;;;0.10;65.14;99913.06;108025;1306;22245;-41
2023/04/04 07:20:42;;;;;;;4.70;2.20;;;;;;;0.12;65.44;99907.37;108028;1306;22479;-42
2023/04/04 07:23:10;;;;;;;11.70;2.60;;;;;;;0.20;65.65;99906.31;108029;1306;22375;-37
2023/04/04 07:25:38;;;;;;;;;;;;;;;0.17;65.57;99904.77;108075;1306;22456;-42
2023/04/04 07:28:04;;;;;;;7.70;2.80;;;;;;;0.14;66.11;99903.91;108019;1306;23218;-43
2023/04/04 07:30:31;;;;;;;8.90;3.30;;;;;;;0.21;66.46;99906.31;108047;1306;22252;-42
2023/04/04 07:33:00;;;;;;;9.80;3.50;;;;;;;0.30;66.12;99906.27;108021;1306;22271;-41
2023/04/04 07:35:26;;;;;;;7.00;2.60;;;;;;;0.36;65.28;99907.98;108014;1306;22301;-43
2023/04/04 07:37:52;;;;;;;10.20;3.10;;;;;;;0.36;64.65;99907.11;108035;1306;22398;-44
2023/04/04 07:40:18;;;;;;;14.30;2.80;;;;;;;0.37;64.74;99905.91;108041;1306;22593;-44
2023/04/04 07:42:49;;;;;;;10.20;3.70;;;;;;;0.49;65.28;99903.96;108027;1306;22221;-46
2023/04/04 07:45:15;;;;;;;7.90;3.20;;;;;;;0.50;64.37;99905.33;108030;1306;22662;-46
2023/04/04 07:47:44;;;;;;;9.20;2.70;;;;;;;0.53;64.04;99907.39;108031;1306;22423;-39
2023/04/04 07:50:13;;;;;;;9.10;3.50;;;;;;;0.45;63.78;99902.27;108026;1306;22532;-42
2023/04/04 07:52:39;;;;;;;9.30;3.00;;;;;;;0.35;63.42;99901.61;107819;1306;22468;-41
2023/04/04 07:55:06;;;;;;;7.70;2.70;;;;;;;0.34;63.62;99900.58;108031;1306;22981;-39
2023/04/04 07:57:40;;;;;;;12.50;3.00;;;;;;;0.42;63.06;99902.77;108025;1306;22474;-40
2023/04/04 08:00:08;;;;;;;6.40;2.50;;;;;;;0.55;63.13;99900.65;108027;1306;22718;-43
2023/04/04 08:02:35;;;;;;;5.90;2.00;;;;;;;0.57;62.14;99900.99;108026;1306;22225;-42
2023/04/04 08:05:01;;;;;;;7.00;2.20;;;;;;;0.60;62.10;99896.84;108027;1306;22213;-44
2023/04/04 08:07:26;;;;;;;5.50;2.90;;;;;;;0.64;62.32;99900.43;108028;1306;22417;-42
2023/04/04 08:09:51;;;;;;;7.20;2.50;;;;;;;0.63;61.72;99896.30;108017;1306;22445;-41
2023/04/04 08:12:17;;;;;;;10.50;2.70;;;;;;;0.70;62.26;99899.20;108021;1306;22397;-43
2023/04/04 08:14:42;;;;;;;11.30;3.30;;;;;;;0.61;60.96;99898.39;108039;1306;22248;-40
2023/04/04 08:17:07;;;;;;;8.20;3.40;;;;;;;0.62;60.59;99895.95;107994;1306;22271;-46
2023/04/04 08:19:32;;;;;;;5.40;3.00;;;;;;;0.71;60.67;99889.02;108010;1306;22277;-40
2023/04/04 08:21:58;;;;;;;6.40;2.80;;;;;;;0.84;60.34;99891.18;108008;1306;23009;-40
2023/04/04 08:24:23;;;;;;;6.40;2.20;;;;;;;0.78;57.00;99891.20;108010;1306;22222;-42
2023/04/04 08:26:48;;;;;;;8.60;3.80;;;;;;;0.81;56.27;99894.30;108023;1306;22291;-40
2023/04/04 08:29:14;;;;;;;14.90;6.70;;;;;;;0.71;55.18;99887.29;108020;1306;22242;-39
2023/04/04 08:31:40;;;;;;;10.00;3.40;;;;;;;0.77;55.06;99885.69;108042;1306;23178;-44
2023/04/04 08:34:07;;;;;;;16.80;5.50;;;;;;;0.89;55.91;99885.45;108031;1306;22404;-39
2023/04/04 08:36:33;;;;;;;19.10;3.10;;;;;;;1.00;56.47;99885.04;108057;1306;22215;-45
2023/04/04 08:38:59;;;;;;;6.70;2.10;;;;;;;1.13;56.14;99884.78;108047;1306;22225;-44
2023/04/04 08:41:25;;;;;;;8.60;3.00;;;;;;;1.12;54.75;99884.27;108022;1306;22478;-43
2023/04/04 08:43:53;;;;;;;3.90;2.00;;;;;;;0.98;54.55;99884.19;108054;1306;22450;-40
2023/04/04 08:46:20;;;;;;;;;;;;;;;0.94;54.30;99884.55;108019;1292;22511;-41
2023/04/04 08:48:47;;;;;;;5.70;1.70;;;;;;;0.90;54.37;99885.80;108031;1306;23436;-42
2023/04/04 08:51:13;;;;;;;6.40;2.60;;;;;;;0.90;54.03;99884.06;108038;1306;22573;-42
2023/04/04 08:53:39;;;;;;;7.80;2.50;;;;;;;0.90;54.22;99887.17;108046;1304;22485;-45
2023/04/04 08:56:04;;;;;;;4.10;1.80;;;;;;;1.06;54.71;99882.41;108002;1300;22231;-43
2023/04/04 08:58:29;;;;;;;8.80;2.70;;;;;;;1.03;54.49;99878.63;107966;1301;23664;-46
2023/04/04 09:00:55;;;;;;;9.30;7.00;;;;;;;1.03;55.24;99882.08;107991;1306;22295;-44
2023/04/04 09:03:29;;;;;;;7.60;3.90;;;;;;;1.09;56.24;99883.24;107997;1306;22455;-42
2023/04/04 09:05:55;;;;;;;7.60;3.80;;;;;;;1.07;57.32;99884.80;108035;1299;22353;-43
2023/04/04 09:08:23;;;;;;;11.20;3.20;;;;;;;1.12;57.82;99886.50;108010;1304;22307;-41
2023/04/04 09:10:50;;;;;;;6.00;2.80;;;;;;;1.01;57.50;99887.09;108040;1301;22400;-44
2023/04/04 09:13:15;;;;;;;8.90;2.50;;;;;;;0.95;57.12;99886.11;108041;1299;23331;-42
2023/04/04 09:15:45;;;;;;;6.40;3.10;;;;;;;1.00;57.05;99885.56;108011;1305;22219;-38
2023/04/04 09:18:11;;;;;;;11.90;5.30;;;;;;;0.96;57.04;99883.00;108047;1306;22247;-40
2023/04/04 09:20:37;;;;;;;15.90;3.40;;;;;;;1.05;57.03;99883.95;108017;1300;22667;-41
2023/04/04 09:23:19;;;;;;;17.80;2.60;;;;;;;1.10;56.30;99884.10;108026;1306;22234;-42
2023/04/04 09:25:52;;;;;;;7.40;3.30;;;;;;;1.17;56.17;99882.67;108009;1301;22220;-43
2023/04/04 09:28:18;;;;;;;9.40;3.30;;;;;;;1.19;55.11;99887.48;108040;1299;23019;-39
2023/04/04 09:30:47;;;;;;;13.70;3.10;;;;;;;1.28;55.64;99887.77;108040;1301;22222;-44
2023/04/04 09:33:14;;;;;;;11.80;3.40;;;;;;;1.30;55.55;99890.85;108045;1306;23016;-42
2023/04/04 09:35:44;;;;;;;7.20;3.90;;;;;;;1.29;54.91;99890.86;108018;1299;22403;-39
2023/04/04 09:38:10;;;;;;;5.30;2.60;;;;;;;1.31;54.62;99891.89;108031;1299;23089;-42
2023/04/04 09:40:36;;;;;;;6.50;2.60;;;;;;;1.18;54.36;99889.40;108040;1302;22547;-43
2023/04/04 09:43:03;;;;;;;4.10;2.30;;;;;;;1.15;54.10;99891.14;108020;1306;22449;-43
2023/04/04 09:45:30;;;;;;;4.30;2.60;;;;;;;1.11;53.07;99888.92;108021;1306;22245;-43
2023/04/04 09:47:56;;;;;;;8.80;2.70;;;;;;;1.18;52.88;99887.48;108015;1306;22282;-43
2023/04/04 09:50:24;;;;;;;4.80;2.80;;;;;;;1.23;52.71;99890.23;108019;1306;22357;-43
2023/04/04 09:52:50;;;;;;;4.80;2.80;;;;;;;1.18;53.17;99890.45;108017;1306;22233;-45
2023/04/04 09:55:17;;;;;;;4.60;2.70;;;;;;;1.19;53.71;99891.29;108025;1306;22245;-41
2023/04/04 09:57:45;;;;;;;5.40;2.70;;;;;;;1.20;53.82;99893.88;108020;1299;22257;-39
2023/04/04 10:00:11;;;;;;;8.90;2.80;;;;;;;1.21;53.20;99892.48;108023;1299;22466;-44
2023/04/04 10:02:39;;;;;;;3.80;2.20;;;;;;;1.27;53.50;99893.83;107988;1299;22385;-44
2023/04/04 10:05:09;;;;;;;7.50;2.40;;;;;;;1.26;53.07;99895.21;107970;1301;22950;-42
2023/04/04 10:07:37;;;;;;;7.10;2.40;;;;;;;1.17;52.67;99897.70;108040;1306;22381;-45
2023/04/04 10:10:09;;;;;;;8.20;2.20;;;;;;;1.11;52.37;99894.27;108016;1306;22211;-43
2023/04/04 10:12:38;;;;;;;4.80;2.20;;;;;;;1.17;51.56;99887.85;108036;1302;22222;-40
2023/04/04 10:15:04;;;;;;;6.60;2.50;;;;;;;1.30;52.07;99885.85;108023;1301;22398;-43
2023/04/04 10:17:35;;;;;;;6.10;2.70;;;;;;;1.44;51.80;99883.48;108028;1306;22253;-40
2023/04/04 10:20:06;;;;;;;8.60;2.20;;;;;;;1.61;51.33;99882.13;108034;1302;23104;-43
2023/04/04 10:22:32;;;;;;;6.40;1.80;;;;;;;1.75;51.22;99880.44;108007;1292;22484;-43
2023/04/04 10:24:58;;;;;;;3.70;2.10;;;;;;;1.79;50.58;99883.69;108026;1306;22302;-41
2023/04/04 10:27:24;;;;;;;5.00;2.30;;;;;;;1.77;50.02;99885.08;108030;1306;22322;-39
2023/04/04 10:29:50;;;;;;;8.80;3.40;;;;;;;1.71;49.93;99879.09;107724;1307;22257;-42
2023/04/04 10:32:32;;;;;;;7.70;2.50;;;;;;;1.87;50.53;99881.17;107945;1306;22253;-38
2023/04/04 10:35:09;;;;;;;9.00;3.80;;;;;;;1.92;50.23;99880.26;108033;1306;22302;-43
2023/04/04 10:37:37;;;;;;;;;;;;;;;2.00;51.19;99877.06;108013;1306;22401;-37
2023/04/04 10:40:12;;;;;;;4.90;2.20;;;;;;;2.03;50.80;99875.14;108029;1306;23187;-41
2023/04/04 10:42:49;;;;;;;9.80;2.50;;;;;;;1.88;50.20;99885.50;108020;1302;22206;-38
2023/04/04 10:45:16;;;;;;;14.20;2.10;;;;;;;1.80;50.38;99881.42;108024;1306;22229;-40
2023/04/04 10:47:43;;;;;;;11.40;2.00;;;;;;;1.81;50.40;99879.69;108064;1306;22930;-42
2023/04/04 10:50:10;;;;;;;;;;;;;;;1.83;50.48;99877.93;108005;1300;22467;-42
2023/04/04 10:52:39;;;;;;;10.70;2.70;;;;;;;1.70;50.02;99881.19;108013;1301;22671;-42
2023/04/04 10:55:07;;;;;;;7.50;2.20;;;;;;;1.73;49.99;99880.46;108018;1306;23266;-42
2023/04/04 10:57:36;;;;;;;24.40;2.40;;;;;;;1.77;50.52;99880.25;107985;1299;22409;-38
2023/04/04 11:00:09;;;;;;;6.00;1.90;;;;;;;1.78;49.93;99880.58;107973;1306;22369;-41
2023/04/04 11:02:50;;;;;;;14.00;2.70;;;;;;;1.76;49.84;99876.63;108031;1306;23065;-41
2023/04/04 11:05:22;;;;;;;13.50;2.30;;;;;;;1.74;50.08;99875.09;108040;1306;22921;-41
2023/04/04 11:08:12;;;;;;;8.10;2.30;;;;;;;1.92;49.62;99873.70;108038;1306;22722;-41
2023/04/04 11:10:47;;;;;;;6.00;2.80;;;;;;;2.01;48.63;99873.77;107874;1306;22591;-39
2023/04/04 11:13:22;;;;;;;8.90;3.00;;;;;;;2.11;48.38;99870.38;108060;1306;22577;-42
2023/04/04 11:16:02;;;;;;;6.40;2.80;;;;;;;2.19;48.01;99865.95;108043;1306;22441;-43
2023/04/04 11:18:31;;;;;;;10.40;2.90;;;;;;;2.23;47.59;99867.45;108027;1306;22255;-41
2023/04/04 11:20:56;;;;;;;7.00;2.90;;;;;;;2.14;47.40;99862.73;108026;1306;23019;-41
2023/04/04 11:23:24;;;;;;;6.50;2.30;;;;;;;2.19;48.18;99862.67;108019;1303;22219;-47